sensor_id;sensor_type;location;lat;lon;timestamp;P1;durP1;ratioP1;P2;durP2;ratioP2
77222;SDS011;66218;48.928;9.140;2022-12-18T15:40:54;2.42;;;1.60;;
77222;SDS011;66218;48.928;9.140;2022-12-18T15:43:21;7.10;;;1.85;;
77222;SDS011;66218;48.928;9.140;2022-12-18T15:46:06;4.78;;;2.25;;
77222;SDS011;66218;48.928;9.140;2022-12-18T15:48:33;0.10;;;0.10;;
77222;SDS011;66218;48.928;9.140;2022-12-18T15:50:59;0.73;;;0.73;;
77222;SDS011;66218;48.928;9.140;2022-12-18T15:53:27;2.15;;;0.73;;
77222;SDS011;66218;48.928;9.140;2022-12-18T15:55:54;0.35;;;0.35;;
77222;SDS011;66218;48.928;9.140;2022-12-18T15:58:39;0.03;;;0.03;;
77222;SDS011;66218;48.928;9.140;2022-12-18T16:01:05;0.35;;;0.35;;
77222;SDS011;66218;48.928;9.140;2022-12-18T16:03:33;2.95;;;0.20;;
77222;SDS011;66218;48.928;9.140;2022-12-18T16:05:59;0.45;;;0.45;;
77222;SDS011;66218;48.928;9.140;2022-12-18T16:08:27;1.33;;;1.30;;
77222;SDS011;66218;48.928;9.140;2022-12-18T16:10:52;0.10;;;0.10;;
77222;SDS011;66218;48.928;9.140;2022-12-18T16:13:19;0.55;;;0.28;;
77222;SDS011;66218;48.928;9.140;2022-12-18T16:15:46;0.95;;;0.60;;
77222;SDS011;66218;48.928;9.140;2022-12-18T16:18:12;0.38;;;0.35;;
77222;SDS011;66218;48.928;9.140;2022-12-18T16:20:38;0.17;;;0.17;;
77222;SDS011;66218;48.928;9.140;2022-12-18T16:23:04;2.33;;;0.98;;
77222;SDS011;66218;48.928;9.140;2022-12-18T16:25:30;0.30;;;0.20;;
77222;SDS011;66218;48.928;9.140;2022-12-18T16:27:56;0.10;;;0.10;;
77222;SDS011;66218;48.928;9.140;2022-12-18T16:30:23;6.00;;;1.30;;
77222;SDS011;66218;48.928;9.140;2022-12-18T16:34:59;1.45;;;1.45;;
77222;SDS011;66218;48.928;9.140;2022-12-18T16:37:25;0.35;;;0.35;;
77222;SDS011;66218;48.928;9.140;2022-12-18T16:43:55;0.00;;;0.00;;
77222;SDS011;66218;48.928;9.140;2022-12-18T16:46:21;0.00;;;0.00;;
77222;SDS011;66218;48.928;9.140;2022-12-18T16:48:47;0.45;;;0.40;;
77222;SDS011;66218;48.928;9.140;2022-12-18T16:51:13;1.38;;;1.17;;
77222;SDS011;66218;48.928;9.140;2022-12-18T16:53:39;0.28;;;0.17;;
77222;SDS011;66218;48.928;9.140;2022-12-18T16:56:05;0.32;;;0.32;;
77222;SDS011;66218;48.928;9.140;2022-12-18T16:58:31;1.90;;;1.80;;
77222;SDS011;66218;48.928;9.140;2022-12-18T17:00:57;0.10;;;0.10;;
77222;SDS011;66218;48.928;9.140;2022-12-18T17:05:49;1.45;;;0.38;;
77222;SDS011;66218;48.928;9.140;2022-12-18T17:08:15;1.40;;;1.13;;
77222;SDS011;66218;48.928;9.140;2022-12-18T17:10:41;0.17;;;0.10;;
77222;SDS011;66218;48.928;9.140;2022-12-18T17:13:07;1.08;;;0.22;;
77222;SDS011;66218;48.928;9.140;2022-12-18T17:15:34;1.65;;;1.55;;
77222;SDS011;66218;48.928;9.140;2022-12-18T17:18:00;0.25;;;0.25;;
77222;SDS011;66218;48.928;9.140;2022-12-18T17:20:26;0.90;;;0.75;;
77222;SDS011;66218;48.928;9.140;2022-12-18T17:22:52;0.10;;;0.10;;
77222;SDS011;66218;48.928;9.140;2022-12-18T17:25:18;0.15;;;0.10;;
77222;SDS011;66218;48.928;9.140;2022-12-18T17:31:37;1.55;;;0.45;;
77222;SDS011;66218;48.928;9.140;2022-12-18T17:34:03;0.05;;;0.05;;
77222;SDS011;66218;48.928;9.140;2022-12-18T17:36:29;0.52;;;0.52;;
77222;SDS011;66218;48.928;9.140;2022-12-18T17:38:57;0.45;;;0.45;;
77222;SDS011;66218;48.928;9.140;2022-12-18T17:41:23;0.03;;;0.03;;
77222;SDS011;66218;48.928;9.140;2022-12-18T17:43:51;0.75;;;0.45;;
77222;SDS011;66218;48.928;9.140;2022-12-18T17:46:17;0.03;;;0.03;;
77222;SDS011;66218;48.928;9.140;2022-12-18T17:48:43;0.25;;;0.25;;
77222;SDS011;66218;48.928;9.140;2022-12-18T17:51:09;0.63;;;0.50;;
77222;SDS011;66218;48.928;9.140;2022-12-18T17:53:36;0.25;;;0.25;;
77222;SDS011;66218;48.928;9.140;2022-12-18T17:56:03;0.40;;;0.40;;
77222;SDS011;66218;48.928;9.140;2022-12-18T17:58:30;1.58;;;1.48;;
77222;SDS011;66218;48.928;9.140;2022-12-18T18:00:57;0.90;;;0.90;;
77222;SDS011;66218;48.928;9.140;2022-12-18T20:44:26;9.77;;;4.77;;
77222;SDS011;66218;48.928;9.140;2022-12-18T20:46:52;8.68;;;3.47;;
77222;SDS011;66218;48.928;9.140;2022-12-18T20:49:21;10.50;;;3.75;;
77222;SDS011;66218;48.928;9.140;2022-12-18T20:51:54;11.50;;;4.32;;
77222;SDS011;66218;48.928;9.140;2022-12-18T20:54:21;6.78;;;3.33;;
77222;SDS011;66218;48.928;9.140;2022-12-18T20:56:48;6.78;;;3.38;;
77222;SDS011;66218;48.928;9.140;2022-12-18T20:59:13;11.30;;;3.40;;
77222;SDS011;66218;48.928;9.140;2022-12-18T21:01:39;8.23;;;3.15;;
77222;SDS011;66218;48.928;9.140;2022-12-18T21:04:05;7.85;;;3.58;;
77222;SDS011;66218;48.928;9.140;2022-12-18T21:06:30;7.43;;;3.50;;
77222;SDS011;66218;48.928;9.140;2022-12-18T21:08:56;4.55;;;2.80;;
77222;SDS011;66218;48.928;9.140;2022-12-18T21:14:07;6.55;;;2.97;;
77222;SDS011;66218;48.928;9.140;2022-12-18T21:16:34;8.77;;;3.95;;
77222;SDS011;66218;48.928;9.140;2022-12-18T21:18:59;7.15;;;3.45;;
77222;SDS011;66218;48.928;9.140;2022-12-18T21:21:24;5.75;;;2.97;;
77222;SDS011;66218;48.928;9.140;2022-12-18T21:23:50;10.65;;;3.45;;
77222;SDS011;66218;48.928;9.140;2022-12-18T21:26:16;6.78;;;3.58;;
77222;SDS011;66218;48.928;9.140;2022-12-18T21:28:46;6.55;;;2.75;;
77222;SDS011;66218;48.928;9.140;2022-12-18T21:31:11;8.55;;;2.97;;
77222;SDS011;66218;48.928;9.140;2022-12-18T21:33:37;5.47;;;2.92;;
77222;SDS011;66218;48.928;9.140;2022-12-18T21:36:03;8.45;;;3.47;;
77222;SDS011;66218;48.928;9.140;2022-12-18T21:38:29;8.25;;;3.08;;
77222;SDS011;66218;48.928;9.140;2022-12-18T21:40:55;5.47;;;3.00;;
77222;SDS011;66218;48.928;9.140;2022-12-18T21:43:20;6.10;;;2.90;;
77222;SDS011;66218;48.928;9.140;2022-12-18T21:46:04;9.07;;;3.50;;
77222;SDS011;66218;48.928;9.140;2022-12-18T21:48:29;8.20;;;3.22;;
77222;SDS011;66218;48.928;9.140;2022-12-18T21:50:54;6.25;;;3.00;;
77222;SDS011;66218;48.928;9.140;2022-12-18T21:53:20;7.22;;;2.88;;
77222;SDS011;66218;48.928;9.140;2022-12-18T21:55:45;6.95;;;3.13;;
77222;SDS011;66218;48.928;9.140;2022-12-18T21:58:10;6.50;;;2.90;;
77222;SDS011;66218;48.928;9.140;2022-12-18T22:00:36;7.18;;;3.08;;
77222;SDS011;66218;48.928;9.140;2022-12-18T22:03:01;6.13;;;2.50;;
77222;SDS011;66218;48.928;9.140;2022-12-18T22:05:26;7.57;;;3.28;;
77222;SDS011;66218;48.928;9.140;2022-12-18T22:07:51;6.57;;;3.08;;
77222;SDS011;66218;48.928;9.140;2022-12-18T22:10:17;6.00;;;2.75;;
77222;SDS011;66218;48.928;9.140;2022-12-18T22:12:42;7.13;;;3.42;;
77222;SDS011;66218;48.928;9.140;2022-12-18T22:15:07;6.00;;;2.90;;
77222;SDS011;66218;48.928;9.140;2022-12-18T22:17:33;7.43;;;2.90;;
77222;SDS011;66218;48.928;9.140;2022-12-18T22:19:59;5.70;;;2.92;;
77222;SDS011;66218;48.928;9.140;2022-12-18T22:22:24;5.88;;;3.05;;
77222;SDS011;66218;48.928;9.140;2022-12-18T22:24:49;4.90;;;2.45;;
77222;SDS011;66218;48.928;9.140;2022-12-18T22:27:15;6.20;;;2.95;;
77222;SDS011;66218;48.928;9.140;2022-12-18T22:29:40;5.63;;;2.45;;
77222;SDS011;66218;48.928;9.140;2022-12-18T22:32:24;5.60;;;2.78;;
77222;SDS011;66218;48.928;9.140;2022-12-18T22:34:49;7.20;;;2.90;;
77222;SDS011;66218;48.928;9.140;2022-12-18T22:37:14;5.22;;;2.83;;
77222;SDS011;66218;48.928;9.140;2022-12-18T22:39:39;4.97;;;2.83;;
77222;SDS011;66218;48.928;9.140;2022-12-18T22:42:05;5.82;;;3.10;;
77222;SDS011;66218;48.928;9.140;2022-12-18T22:44:30;4.82;;;2.53;;
77222;SDS011;66218;48.928;9.140;2022-12-18T22:46:56;6.45;;;3.03;;
77222;SDS011;66218;48.928;9.140;2022-12-18T22:49:23;6.55;;;3.28;;
77222;SDS011;66218;48.928;9.140;2022-12-18T22:51:49;6.78;;;3.00;;
77222;SDS011;66218;48.928;9.140;2022-12-18T22:56:40;17.40;;;6.67;;
77222;SDS011;66218;48.928;9.140;2022-12-18T22:59:07;12.45;;;6.10;;
77222;SDS011;66218;48.928;9.140;2022-12-18T23:01:34;13.23;;;6.40;;
77222;SDS011;66218;48.928;9.140;2022-12-18T23:04:00;12.70;;;5.20;;
77222;SDS011;66218;48.928;9.140;2022-12-18T23:06:26;10.27;;;5.13;;
77222;SDS011;66218;48.928;9.140;2022-12-18T23:08:53;10.32;;;5.03;;
77222;SDS011;66218;48.928;9.140;2022-12-18T23:11:19;9.68;;;4.32;;
77222;SDS011;66218;48.928;9.140;2022-12-18T23:13:44;9.15;;;4.40;;
77222;SDS011;66218;48.928;9.140;2022-12-18T23:16:11;7.60;;;3.50;;
77222;SDS011;66218;48.928;9.140;2022-12-18T23:18:38;10.50;;;4.72;;
77222;SDS011;66218;48.928;9.140;2022-12-18T23:21:05;9.40;;;4.38;;
77222;SDS011;66218;48.928;9.140;2022-12-18T23:23:35;9.15;;;3.78;;
77222;SDS011;66218;48.928;9.140;2022-12-18T23:26:04;9.20;;;4.03;;
77222;SDS011;66218;48.928;9.140;2022-12-18T23:28:32;8.80;;;3.50;;
77222;SDS011;66218;48.928;9.140;2022-12-18T23:31:04;6.43;;;3.83;;
77222;SDS011;66218;48.928;9.140;2022-12-18T23:33:37;9.10;;;4.47;;
77222;SDS011;66218;48.928;9.140;2022-12-18T23:36:03;6.53;;;3.22;;
77222;SDS011;66218;48.928;9.140;2022-12-18T23:38:29;6.47;;;3.25;;
77222;SDS011;66218;48.928;9.140;2022-12-18T23:40:54;12.65;;;3.83;;
77222;SDS011;66218;48.928;9.140;2022-12-18T23:43:20;9.27;;;3.55;;
77222;SDS011;66218;48.928;9.140;2022-12-18T23:45:45;7.97;;;3.60;;
77222;SDS011;66218;48.928;9.140;2022-12-18T23:48:11;7.90;;;3.58;;
77222;SDS011;66218;48.928;9.140;2022-12-18T23:50:36;7.13;;;3.00;;
77222;SDS011;66218;48.928;9.140;2022-12-18T23:53:02;6.10;;;3.03;;
77222;SDS011;66218;48.928;9.140;2022-12-18T23:55:28;7.45;;;3.45;;
77222;SDS011;66218;48.928;9.140;2022-12-18T23:57:53;6.32;;;2.97;;
